sensor_id;sensor_type;location;lat;lon;timestamp;temperature;humidity
17565;DHT22;62994;52.126;5.596;2023-07-13T00:03:46;20.00;99.90
17565;DHT22;62994;52.126;5.596;2023-07-13T00:06:15;20.00;99.90
17565;DHT22;62994;52.126;5.596;2023-07-13T00:08:42;20.00;99.90
17565;DHT22;62994;52.126;5.596;2023-07-13T00:11:24;20.00;99.90
17565;DHT22;62994;52.126;5.596;2023-07-13T00:13:51;20.00;99.90
17565;DHT22;62994;52.126;5.596;2023-07-13T00:16:20;20.00;99.90
17565;DHT22;62994;52.126;5.596;2023-07-13T00:18:49;20.00;99.90
17565;DHT22;62994;52.126;5.596;2023-07-13T00:21:21;20.00;99.90
17565;DHT22;62994;52.126;5.596;2023-07-13T00:23:58;20.00;99.90
17565;DHT22;62994;52.126;5.596;2023-07-13T00:26:27;20.00;99.90
17565;DHT22;62994;52.126;5.596;2023-07-13T00:29:01;20.10;99.90
17565;DHT22;62994;52.126;5.596;2023-07-13T00:31:33;20.20;99.90
17565;DHT22;62994;52.126;5.596;2023-07-13T00:34:07;20.20;99.90
17565;DHT22;62994;52.126;5.596;2023-07-13T00:36:37;20.10;99.90
17565;DHT22;62994;52.126;5.596;2023-07-13T00:39:12;20.00;99.90
17565;DHT22;62994;52.126;5.596;2023-07-13T00:41:44;20.10;99.90
17565;DHT22;62994;52.126;5.596;2023-07-13T00:44:14;20.00;99.90
17565;DHT22;62994;52.126;5.596;2023-07-13T00:46:43;20.00;99.90
17565;DHT22;62994;52.126;5.596;2023-07-13T00:49:20;19.90;99.90
17565;DHT22;62994;52.126;5.596;2023-07-13T00:51:55;19.90;99.90
17565;DHT22;62994;52.126;5.596;2023-07-13T00:54:27;19.80;99.90
17565;DHT22;62994;52.126;5.596;2023-07-13T00:57:03;19.80;99.90
17565;DHT22;62994;52.126;5.596;2023-07-13T00:59:35;19.80;99.90
17565;DHT22;62994;52.126;5.596;2023-07-13T01:02:07;19.80;99.90
17565;DHT22;62994;52.126;5.596;2023-07-13T01:04:47;19.70;99.90
17565;DHT22;62994;52.126;5.596;2023-07-13T01:07:33;19.70;99.90
17565;DHT22;62994;52.126;5.596;2023-07-13T01:10:02;19.70;99.90
17565;DHT22;62994;52.126;5.596;2023-07-13T01:12:54;19.60;99.90
17565;DHT22;62994;52.126;5.596;2023-07-13T01:15:36;19.50;99.90
17565;DHT22;62994;52.126;5.596;2023-07-13T01:18:05;19.40;99.90
17565;DHT22;62994;52.126;5.596;2023-07-13T01:20:32;19.30;99.90
17565;DHT22;62994;52.126;5.596;2023-07-13T01:23:11;19.30;99.90
17565;DHT22;62994;52.126;5.596;2023-07-13T01:25:44;19.20;99.90
17565;DHT22;62994;52.126;5.596;2023-07-13T01:28:16;19.20;99.90
17565;DHT22;62994;52.126;5.596;2023-07-13T01:30:45;19.10;99.90
17565;DHT22;62994;52.126;5.596;2023-07-13T01:33:15;19.10;99.90
17565;DHT22;62994;52.126;5.596;2023-07-13T01:35:46;19.00;99.90
17565;DHT22;62994;52.126;5.596;2023-07-13T01:38:17;19.00;99.90
17565;DHT22;62994;52.126;5.596;2023-07-13T01:40:46;18.90;99.90
17565;DHT22;62994;52.126;5.596;2023-07-13T01:43:14;18.90;99.90
17565;DHT22;62994;52.126;5.596;2023-07-13T01:45:42;18.90;99.90
17565;DHT22;62994;52.126;5.596;2023-07-13T01:48:11;18.90;99.90
17565;DHT22;62994;52.126;5.596;2023-07-13T01:50:42;18.90;99.90
17565;DHT22;62994;52.126;5.596;2023-07-13T01:53:11;18.90;99.90
17565;DHT22;62994;52.126;5.596;2023-07-13T01:55:41;18.90;99.90
17565;DHT22;62994;52.126;5.596;2023-07-13T01:58:10;18.80;99.90
17565;DHT22;62994;52.126;5.596;2023-07-13T02:00:50;18.80;99.90
17565;DHT22;62994;52.126;5.596;2023-07-13T02:03:19;18.70;99.90
17565;DHT22;62994;52.126;5.596;2023-07-13T02:05:49;18.70;99.90
17565;DHT22;62994;52.126;5.596;2023-07-13T02:08:19;18.70;99.90
17565;DHT22;62994;52.126;5.596;2023-07-13T02:10:49;18.70;99.90
17565;DHT22;62994;52.126;5.596;2023-07-13T02:13:17;18.70;99.90
17565;DHT22;62994;52.126;5.596;2023-07-13T02:15:53;18.60;99.90
17565;DHT22;62994;52.126;5.596;2023-07-13T02:18:27;18.60;99.90
17565;DHT22;62994;52.126;5.596;2023-07-13T02:21:06;18.60;99.90
17565;DHT22;62994;52.126;5.596;2023-07-13T02:23:45;18.60;99.90
17565;DHT22;62994;52.126;5.596;2023-07-13T02:26:16;18.60;99.90
17565;DHT22;62994;52.126;5.596;2023-07-13T02:28:50;18.60;99.90
17565;DHT22;62994;52.126;5.596;2023-07-13T02:31:18;18.50;99.90
17565;DHT22;62994;52.126;5.596;2023-07-13T02:33:55;18.50;99.90
17565;DHT22;62994;52.126;5.596;2023-07-13T02:36:48;18.40;99.90
17565;DHT22;62994;52.126;5.596;2023-07-13T02:39:27;18.40;99.90
17565;DHT22;62994;52.126;5.596;2023-07-13T02:42:14;18.40;99.90
17565;DHT22;62994;52.126;5.596;2023-07-13T02:44:43;18.30;99.90
17565;DHT22;62994;52.126;5.596;2023-07-13T02:47:13;18.30;99.90
17565;DHT22;62994;52.126;5.596;2023-07-13T02:49:46;18.30;99.90
17565;DHT22;62994;52.126;5.596;2023-07-13T02:52:16;18.20;99.90
17565;DHT22;62994;52.126;5.596;2023-07-13T02:54:44;18.20;99.90
17565;DHT22;62994;52.126;5.596;2023-07-13T02:57:16;18.20;99.90
17565;DHT22;62994;52.126;5.596;2023-07-13T02:59:46;18.10;99.90
17565;DHT22;62994;52.126;5.596;2023-07-13T03:02:14;18.10;99.90
17565;DHT22;62994;52.126;5.596;2023-07-13T03:04:43;18.00;99.90
17565;DHT22;62994;52.126;5.596;2023-07-13T03:07:11;18.00;99.90
17565;DHT22;62994;52.126;5.596;2023-07-13T03:09:41;18.10;99.90
17565;DHT22;62994;52.126;5.596;2023-07-13T03:12:08;18.00;99.90
17565;DHT22;62994;52.126;5.596;2023-07-13T03:14:43;18.00;99.90
17565;DHT22;62994;52.126;5.596;2023-07-13T03:17:10;18.00;99.90
17565;DHT22;62994;52.126;5.596;2023-07-13T03:19:42;18.00;99.90
17565;DHT22;62994;52.126;5.596;2023-07-13T03:22:24;17.90;99.90
17565;DHT22;62994;52.126;5.596;2023-07-13T03:24:52;17.90;99.90
17565;DHT22;62994;52.126;5.596;2023-07-13T03:27:26;17.80;99.90
17565;DHT22;62994;52.126;5.596;2023-07-13T03:30:02;17.80;99.90
17565;DHT22;62994;52.126;5.596;2023-07-13T03:32:30;17.80;99.90
17565;DHT22;62994;52.126;5.596;2023-07-13T03:34:57;17.90;99.90
17565;DHT22;62994;52.126;5.596;2023-07-13T03:37:26;17.80;99.90
17565;DHT22;62994;52.126;5.596;2023-07-13T03:39:58;17.80;99.90
17565;DHT22;62994;52.126;5.596;2023-07-13T03:42:26;17.80;99.90
17565;DHT22;62994;52.126;5.596;2023-07-13T03:44:54;17.80;99.90
17565;DHT22;62994;52.126;5.596;2023-07-13T03:47:27;17.80;99.90
17565;DHT22;62994;52.126;5.596;2023-07-13T03:49:55;17.80;99.90
17565;DHT22;62994;52.126;5.596;2023-07-13T03:52:23;17.80;99.90
17565;DHT22;62994;52.126;5.596;2023-07-13T03:54:54;17.80;99.90
17565;DHT22;62994;52.126;5.596;2023-07-13T03:57:26;17.80;99.90
17565;DHT22;62994;52.126;5.596;2023-07-13T03:59:55;17.80;99.90
17565;DHT22;62994;52.126;5.596;2023-07-13T04:02:24;17.80;99.90
17565;DHT22;62994;52.126;5.596;2023-07-13T04:04:57;17.80;99.90
17565;DHT22;62994;52.126;5.596;2023-07-13T04:07:26;17.80;99.90
17565;DHT22;62994;52.126;5.596;2023-07-13T04:09:53;17.80;99.90
17565;DHT22;62994;52.126;5.596;2023-07-13T04:12:22;17.80;99.90
17565;DHT22;62994;52.126;5.596;2023-07-13T04:14:49;17.80;99.90
17565;DHT22;62994;52.126;5.596;2023-07-13T04:17:18;17.80;99.90
17565;DHT22;62994;52.126;5.596;2023-07-13T04:20:01;17.70;99.90
17565;DHT22;62994;52.126;5.596;2023-07-13T04:23:03;17.70;99.90
17565;DHT22;62994;52.126;5.596;2023-07-13T04:25:37;17.80;99.90
17565;DHT22;62994;52.126;5.596;2023-07-13T04:28:05;17.80;99.90
17565;DHT22;62994;52.126;5.596;2023-07-13T04:30:34;17.80;99.90
17565;DHT22;62994;52.126;5.596;2023-07-13T04:33:03;17.80;99.90
17565;DHT22;62994;52.126;5.596;2023-07-13T04:35:44;17.80;99.90
17565;DHT22;62994;52.126;5.596;2023-07-13T04:38:16;17.70;99.90
17565;DHT22;62994;52.126;5.596;2023-07-13T04:40:47;17.70;99.90
17565;DHT22;62994;52.126;5.596;2023-07-13T04:43:18;17.70;99.90
17565;DHT22;62994;52.126;5.596;2023-07-13T04:45:46;17.70;99.90
17565;DHT22;62994;52.126;5.596;2023-07-13T04:48:18;17.70;99.90
17565;DHT22;62994;52.126;5.596;2023-07-13T04:50:47;17.60;99.90
17565;DHT22;62994;52.126;5.596;2023-07-13T04:53:15;17.60;99.90
17565;DHT22;62994;52.126;5.596;2023-07-13T04:55:44;17.60;99.90
17565;DHT22;62994;52.126;5.596;2023-07-13T04:58:14;17.60;99.90
17565;DHT22;62994;52.126;5.596;2023-07-13T05:00:43;17.60;99.90
17565;DHT22;62994;52.126;5.596;2023-07-13T05:03:12;17.60;99.90
17565;DHT22;62994;52.126;5.596;2023-07-13T05:05:40;17.80;99.90
17565;DHT22;62994;52.126;5.596;2023-07-13T05:08:26;17.70;99.90
17565;DHT22;62994;52.126;5.596;2023-07-13T05:10:55;17.80;99.90
17565;DHT22;62994;52.126;5.596;2023-07-13T05:13:24;17.80;99.90
17565;DHT22;62994;52.126;5.596;2023-07-13T05:15:57;17.80;99.90
17565;DHT22;62994;52.126;5.596;2023-07-13T05:18:27;17.80;99.90
17565;DHT22;62994;52.126;5.596;2023-07-13T05:21:14;17.80;99.90
17565;DHT22;62994;52.126;5.596;2023-07-13T05:23:43;17.80;99.90
17565;DHT22;62994;52.126;5.596;2023-07-13T05:26:15;17.80;99.90
17565;DHT22;62994;52.126;5.596;2023-07-13T05:28:49;17.80;99.90
17565;DHT22;62994;52.126;5.596;2023-07-13T05:31:18;17.90;99.90
17565;DHT22;62994;52.126;5.596;2023-07-13T05:33:48;17.80;99.90
17565;DHT22;62994;52.126;5.596;2023-07-13T05:36:17;17.90;99.90
17565;DHT22;62994;52.126;5.596;2023-07-13T05:38:56;17.90;99.90
17565;DHT22;62994;52.126;5.596;2023-07-13T05:41:25;18.00;99.90
17565;DHT22;62994;52.126;5.596;2023-07-13T05:43:56;17.90;99.90
17565;DHT22;62994;52.126;5.596;2023-07-13T05:46:25;18.00;99.90
17565;DHT22;62994;52.126;5.596;2023-07-13T05:48:55;18.00;99.90
17565;DHT22;62994;52.126;5.596;2023-07-13T05:51:29;18.00;99.90
17565;DHT22;62994;52.126;5.596;2023-07-13T05:54:00;18.10;99.90
17565;DHT22;62994;52.126;5.596;2023-07-13T05:56:28;18.20;99.90
17565;DHT22;62994;52.126;5.596;2023-07-13T05:59:13;18.20;99.90
17565;DHT22;62994;52.126;5.596;2023-07-13T06:01:48;18.30;99.90
17565;DHT22;62994;52.126;5.596;2023-07-13T06:04:31;18.20;99.90
17565;DHT22;62994;52.126;5.596;2023-07-13T06:06:58;18.30;99.90
17565;DHT22;62994;52.126;5.596;2023-07-13T06:09:31;18.20;99.90
17565;DHT22;62994;52.126;5.596;2023-07-13T06:12:00;18.30;99.90
17565;DHT22;62994;52.126;5.596;2023-07-13T06:14:32;18.30;99.90
17565;DHT22;62994;52.126;5.596;2023-07-13T06:17:01;18.20;99.90
17565;DHT22;62994;52.126;5.596;2023-07-13T06:19:36;18.20;99.90
17565;DHT22;62994;52.126;5.596;2023-07-13T06:22:17;18.30;99.90
17565;DHT22;62994;52.126;5.596;2023-07-13T06:24:48;18.30;99.90
17565;DHT22;62994;52.126;5.596;2023-07-13T06:27:26;18.40;99.90
17565;DHT22;62994;52.126;5.596;2023-07-13T06:29:57;18.40;99.90
17565;DHT22;62994;52.126;5.596;2023-07-13T06:32:27;18.50;99.90
17565;DHT22;62994;52.126;5.596;2023-07-13T06:34:54;18.60;99.90
17565;DHT22;62994;52.126;5.596;2023-07-13T06:37:22;18.60;99.90
17565;DHT22;62994;52.126;5.596;2023-07-13T06:39:54;18.70;99.90
17565;DHT22;62994;52.126;5.596;2023-07-13T06:42:25;18.70;99.90
17565;DHT22;62994;52.126;5.596;2023-07-13T06:44:55;18.70;99.90
17565;DHT22;62994;52.126;5.596;2023-07-13T06:47:23;18.70;99.90
17565;DHT22;62994;52.126;5.596;2023-07-13T06:49:52;18.80;99.90
17565;DHT22;62994;52.126;5.596;2023-07-13T06:52:19;18.80;99.90
17565;DHT22;62994;52.126;5.596;2023-07-13T06:54:48;18.70;99.90
17565;DHT22;62994;52.126;5.596;2023-07-13T06:57:17;18.80;99.90
17565;DHT22;62994;52.126;5.596;2023-07-13T06:59:44;18.80;99.90
17565;DHT22;62994;52.126;5.596;2023-07-13T07:02:25;18.80;99.90
17565;DHT22;62994;52.126;5.596;2023-07-13T07:05:00;18.80;99.90
17565;DHT22;62994;52.126;5.596;2023-07-13T07:07:37;18.80;99.90
17565;DHT22;62994;52.126;5.596;2023-07-13T07:10:17;18.90;99.90
17565;DHT22;62994;52.126;5.596;2023-07-13T07:13:07;19.00;99.90
17565;DHT22;62994;52.126;5.596;2023-07-13T07:15:48;18.90;99.90
17565;DHT22;62994;52.126;5.596;2023-07-13T07:18:37;18.90;99.90
17565;DHT22;62994;52.126;5.596;2023-07-13T07:21:20;19.00;99.90
17565;DHT22;62994;52.126;5.596;2023-07-13T07:23:56;19.10;99.90
17565;DHT22;62994;52.126;5.596;2023-07-13T07:26:25;19.10;99.90
17565;DHT22;62994;52.126;5.596;2023-07-13T07:29:02;19.20;99.90
17565;DHT22;62994;52.126;5.596;2023-07-13T07:31:31;19.20;99.90
17565;DHT22;62994;52.126;5.596;2023-07-13T07:34:12;19.20;99.90
17565;DHT22;62994;52.126;5.596;2023-07-13T07:36:49;19.30;99.90
17565;DHT22;62994;52.126;5.596;2023-07-13T07:39:18;19.40;99.90
17565;DHT22;62994;52.126;5.596;2023-07-13T07:41:50;19.40;99.90
17565;DHT22;62994;52.126;5.596;2023-07-13T07:44:35;19.50;99.90
17565;DHT22;62994;52.126;5.596;2023-07-13T07:47:22;19.60;99.90
17565;DHT22;62994;52.126;5.596;2023-07-13T07:50:02;19.60;99.90
17565;DHT22;62994;52.126;5.596;2023-07-13T07:52:46;19.70;99.90
17565;DHT22;62994;52.126;5.596;2023-07-13T07:55:19;19.70;99.90
17565;DHT22;62994;52.126;5.596;2023-07-13T07:57:52;19.80;99.90
17565;DHT22;62994;52.126;5.596;2023-07-13T08:00:29;19.90;99.90
17565;DHT22;62994;52.126;5.596;2023-07-13T08:03:00;19.90;99.90
17565;DHT22;62994;52.126;5.596;2023-07-13T08:05:44;20.00;99.90
17565;DHT22;62994;52.126;5.596;2023-07-13T08:08:25;20.10;99.90
17565;DHT22;62994;52.126;5.596;2023-07-13T08:10:56;20.20;99.90
17565;DHT22;62994;52.126;5.596;2023-07-13T08:13:48;20.30;99.90
17565;DHT22;62994;52.126;5.596;2023-07-13T08:16:18;20.30;99.90
17565;DHT22;62994;52.126;5.596;2023-07-13T08:18:45;20.30;99.90
17565;DHT22;62994;52.126;5.596;2023-07-13T08:24:49;20.30;99.90
17565;DHT22;62994;52.126;5.596;2023-07-13T08:27:28;20.40;99.90
17565;DHT22;62994;52.126;5.596;2023-07-13T08:30:11;20.40;99.90
17565;DHT22;62994;52.126;5.596;2023-07-13T08:33:05;20.50;99.90
17565;DHT22;62994;52.126;5.596;2023-07-13T08:35:45;20.70;99.90
17565;DHT22;62994;52.126;5.596;2023-07-13T08:38:18;20.80;99.90
17565;DHT22;62994;52.126;5.596;2023-07-13T08:40:55;20.80;99.90
17565;DHT22;62994;52.126;5.596;2023-07-13T08:43:26;21.00;99.90
17565;DHT22;62994;52.126;5.596;2023-07-13T08:46:08;21.00;99.90
17565;DHT22;62994;52.126;5.596;2023-07-13T08:48:41;21.20;99.90
17565;DHT22;62994;52.126;5.596;2023-07-13T08:53:02;21.30;99.90
17565;DHT22;62994;52.126;5.596;2023-07-13T08:54:32;21.40;99.90
17565;DHT22;62994;52.126;5.596;2023-07-13T08:57:12;21.50;99.90
17565;DHT22;62994;52.126;5.596;2023-07-13T08:59:44;21.60;99.90
17565;DHT22;62994;52.126;5.596;2023-07-13T09:02:41;21.70;99.90
17565;DHT22;62994;52.126;5.596;2023-07-13T09:05:15;21.70;99.90
17565;DHT22;62994;52.126;5.596;2023-07-13T09:08:35;21.80;99.90
17565;DHT22;62994;52.126;5.596;2023-07-13T09:11:03;21.90;99.90
17565;DHT22;62994;52.126;5.596;2023-07-13T09:13:48;22.00;99.90
17565;DHT22;62994;52.126;5.596;2023-07-13T09:16:33;22.10;99.90
17565;DHT22;62994;52.126;5.596;2023-07-13T09:19:09;22.10;99.90
17565;DHT22;62994;52.126;5.596;2023-07-13T09:21:48;22.10;99.90
17565;DHT22;62994;52.126;5.596;2023-07-13T09:24:39;22.00;99.90
17565;DHT22;62994;52.126;5.596;2023-07-13T09:27:30;22.00;99.90
17565;DHT22;62994;52.126;5.596;2023-07-13T09:30:23;22.10;99.90
17565;DHT22;62994;52.126;5.596;2023-07-13T09:33:08;22.00;99.90
17565;DHT22;62994;52.126;5.596;2023-07-13T09:35:43;22.10;99.90
17565;DHT22;62994;52.126;5.596;2023-07-13T09:38:24;22.10;99.90
17565;DHT22;62994;52.126;5.596;2023-07-13T09:41:13;22.10;99.90
17565;DHT22;62994;52.126;5.596;2023-07-13T09:44:06;22.20;99.90
17565;DHT22;62994;52.126;5.596;2023-07-13T09:48:56;22.20;99.90
17565;DHT22;62994;52.126;5.596;2023-07-13T09:49:42;22.30;99.90
17565;DHT22;62994;52.126;5.596;2023-07-13T09:52:17;22.30;99.90
17565;DHT22;62994;52.126;5.596;2023-07-13T09:54:51;22.30;99.90
17565;DHT22;62994;52.126;5.596;2023-07-13T09:57:28;22.30;99.90
17565;DHT22;62994;52.126;5.596;2023-07-13T10:00:02;22.40;99.90
17565;DHT22;62994;52.126;5.596;2023-07-13T10:02:32;22.40;99.90
17565;DHT22;62994;52.126;5.596;2023-07-13T10:05:13;22.50;99.90
17565;DHT22;62994;52.126;5.596;2023-07-13T10:07:44;22.50;99.90
17565;DHT22;62994;52.126;5.596;2023-07-13T10:10:25;22.50;99.90
17565;DHT22;62994;52.126;5.596;2023-07-13T10:13:04;22.50;99.90
17565;DHT22;62994;52.126;5.596;2023-07-13T10:15:45;22.40;99.90
17565;DHT22;62994;52.126;5.596;2023-07-13T10:18:22;22.30;99.90
17565;DHT22;62994;52.126;5.596;2023-07-13T10:21:09;22.20;99.90
17565;DHT22;62994;52.126;5.596;2023-07-13T10:24:10;22.10;99.90
17565;DHT22;62994;52.126;5.596;2023-07-13T10:26:51;22.00;99.90
17565;DHT22;62994;52.126;5.596;2023-07-13T10:29:39;21.90;99.90
17565;DHT22;62994;52.126;5.596;2023-07-13T10:32:16;22.20;99.90
17565;DHT22;62994;52.126;5.596;2023-07-13T10:34:57;22.30;99.90
17565;DHT22;62994;52.126;5.596;2023-07-13T10:37:29;22.30;99.90
17565;DHT22;62994;52.126;5.596;2023-07-13T10:40:05;22.30;99.90
17565;DHT22;62994;52.126;5.596;2023-07-13T10:42:38;22.30;99.90
17565;DHT22;62994;52.126;5.596;2023-07-13T10:45:13;22.30;99.90
17565;DHT22;62994;52.126;5.596;2023-07-13T10:47:54;22.40;99.90
17565;DHT22;62994;52.126;5.596;2023-07-13T10:50:44;22.50;99.90
17565;DHT22;62994;52.126;5.596;2023-07-13T10:56:29;22.70;99.90
17565;DHT22;62994;52.126;5.596;2023-07-13T10:59:24;22.90;99.90
17565;DHT22;62994;52.126;5.596;2023-07-13T11:02:26;22.90;99.90
17565;DHT22;62994;52.126;5.596;2023-07-13T11:04:59;23.00;99.90
17565;DHT22;62994;52.126;5.596;2023-07-13T11:11:01;22.80;99.90
17565;DHT22;62994;52.126;5.596;2023-07-13T11:16:56;22.90;99.90
17565;DHT22;62994;52.126;5.596;2023-07-13T11:19:43;23.00;99.90
17565;DHT22;62994;52.126;5.596;2023-07-13T11:22:24;23.20;99.90
17565;DHT22;62994;52.126;5.596;2023-07-13T11:25:02;23.40;99.90
17565;DHT22;62994;52.126;5.596;2023-07-13T11:27:36;23.50;99.90
17565;DHT22;62994;52.126;5.596;2023-07-13T11:30:23;23.70;99.90
17565;DHT22;62994;52.126;5.596;2023-07-13T11:33:18;23.90;99.90
17565;DHT22;62994;52.126;5.596;2023-07-13T11:36:16;24.00;99.90
17565;DHT22;62994;52.126;5.596;2023-07-13T11:39:16;24.20;99.90
17565;DHT22;62994;52.126;5.596;2023-07-13T11:41:57;24.20;99.90
17565;DHT22;62994;52.126;5.596;2023-07-13T11:44:41;24.40;99.90
17565;DHT22;62994;52.126;5.596;2023-07-13T11:47:16;24.50;99.90
17565;DHT22;62994;52.126;5.596;2023-07-13T11:49:55;24.70;99.90
17565;DHT22;62994;52.126;5.596;2023-07-13T11:55:45;24.80;99.90
17565;DHT22;62994;52.126;5.596;2023-07-13T11:58:32;24.80;99.90
17565;DHT22;62994;52.126;5.596;2023-07-13T12:01:15;24.70;99.90
17565;DHT22;62994;52.126;5.596;2023-07-13T12:03:45;24.50;99.90
17565;DHT22;62994;52.126;5.596;2023-07-13T12:09:29;24.10;99.90
17565;DHT22;62994;52.126;5.596;2023-07-13T12:12:21;24.00;99.90
17565;DHT22;62994;52.126;5.596;2023-07-13T12:14:56;23.80;99.90
17565;DHT22;62994;52.126;5.596;2023-07-13T12:18:09;23.60;99.90
17565;DHT22;62994;52.126;5.596;2023-07-13T12:21:15;23.50;99.90
17565;DHT22;62994;52.126;5.596;2023-07-13T12:24:12;23.40;99.90
17565;DHT22;62994;52.126;5.596;2023-07-13T12:26:58;23.40;99.90
17565;DHT22;62994;52.126;5.596;2023-07-13T12:29:29;23.30;99.90
17565;DHT22;62994;52.126;5.596;2023-07-13T12:31:59;23.30;99.90
17565;DHT22;62994;52.126;5.596;2023-07-13T12:34:51;23.30;99.90
17565;DHT22;62994;52.126;5.596;2023-07-13T12:37:36;23.30;99.90
17565;DHT22;62994;52.126;5.596;2023-07-13T12:40:14;23.40;99.90
17565;DHT22;62994;52.126;5.596;2023-07-13T12:42:50;23.60;99.90
17565;DHT22;62994;52.126;5.596;2023-07-13T12:45:27;23.70;99.90
17565;DHT22;62994;52.126;5.596;2023-07-13T12:48:16;23.90;99.90
17565;DHT22;62994;52.126;5.596;2023-07-13T12:50:49;24.10;99.90
17565;DHT22;62994;52.126;5.596;2023-07-13T12:53:35;24.10;99.90
17565;DHT22;62994;52.126;5.596;2023-07-13T12:56:21;24.10;99.90
17565;DHT22;62994;52.126;5.596;2023-07-13T12:59:05;24.20;99.90
17565;DHT22;62994;52.126;5.596;2023-07-13T13:01:38;24.30;99.90
17565;DHT22;62994;52.126;5.596;2023-07-13T13:04:38;24.40;99.90
17565;DHT22;62994;52.126;5.596;2023-07-13T13:08:20;24.60;99.90
17565;DHT22;62994;52.126;5.596;2023-07-13T13:10:22;24.70;99.90
17565;DHT22;62994;52.126;5.596;2023-07-13T13:12:52;24.90;99.90
17565;DHT22;62994;52.126;5.596;2023-07-13T13:15:21;25.20;99.90
17565;DHT22;62994;52.126;5.596;2023-07-13T13:21:09;25.50;99.90
17565;DHT22;62994;52.126;5.596;2023-07-13T13:23:42;25.50;99.90
17565;DHT22;62994;52.126;5.596;2023-07-13T13:26:26;25.70;99.90
17565;DHT22;62994;52.126;5.596;2023-07-13T13:29:11;25.90;99.90
17565;DHT22;62994;52.126;5.596;2023-07-13T13:32:01;26.00;99.90
17565;DHT22;62994;52.126;5.596;2023-07-13T13:34:35;26.20;99.90
17565;DHT22;62994;52.126;5.596;2023-07-13T13:37:27;26.20;99.90
17565;DHT22;62994;52.126;5.596;2023-07-13T13:40:16;26.30;99.90
17565;DHT22;62994;52.126;5.596;2023-07-13T13:43:04;26.30;99.90
17565;DHT22;62994;52.126;5.596;2023-07-13T13:45:42;26.50;99.90
17565;DHT22;62994;52.126;5.596;2023-07-13T13:48:29;26.50;99.90
17565;DHT22;62994;52.126;5.596;2023-07-13T13:51:01;26.50;99.90
17565;DHT22;62994;52.126;5.596;2023-07-13T13:53:57;26.40;99.90
17565;DHT22;62994;52.126;5.596;2023-07-13T13:56:57;26.20;99.90
17565;DHT22;62994;52.126;5.596;2023-07-13T13:59:42;26.10;99.90
17565;DHT22;62994;52.126;5.596;2023-07-13T14:02:37;26.00;99.90
17565;DHT22;62994;52.126;5.596;2023-07-13T14:05:22;26.00;99.90
17565;DHT22;62994;52.126;5.596;2023-07-13T14:07:56;26.00;99.90
17565;DHT22;62994;52.126;5.596;2023-07-13T14:10:48;26.10;99.90
17565;DHT22;62994;52.126;5.596;2023-07-13T14:13:26;26.20;99.90
17565;DHT22;62994;52.126;5.596;2023-07-13T14:16:31;26.20;99.90
17565;DHT22;62994;52.126;5.596;2023-07-13T14:19:04;26.30;99.90
17565;DHT22;62994;52.126;5.596;2023-07-13T14:22:22;26.30;99.90
17565;DHT22;62994;52.126;5.596;2023-07-13T14:25:02;26.40;99.90
17565;DHT22;62994;52.126;5.596;2023-07-13T14:27:42;26.40;99.90
17565;DHT22;62994;52.126;5.596;2023-07-13T14:30:53;26.40;99.90
17565;DHT22;62994;52.126;5.596;2023-07-13T14:33:37;26.40;99.90
17565;DHT22;62994;52.126;5.596;2023-07-13T14:36:41;26.40;99.90
17565;DHT22;62994;52.126;5.596;2023-07-13T14:39:34;26.30;99.90
17565;DHT22;62994;52.126;5.596;2023-07-13T14:44:55;26.20;99.90
17565;DHT22;62994;52.126;5.596;2023-07-13T14:47:32;26.20;99.90
17565;DHT22;62994;52.126;5.596;2023-07-13T14:50:12;26.00;99.90
17565;DHT22;62994;52.126;5.596;2023-07-13T14:52:44;25.90;99.90
17565;DHT22;62994;52.126;5.596;2023-07-13T14:55:18;26.00;99.90
17565;DHT22;62994;52.126;5.596;2023-07-13T14:57:56;26.10;99.90
17565;DHT22;62994;52.126;5.596;2023-07-13T15:00:32;26.20;99.90
17565;DHT22;62994;52.126;5.596;2023-07-13T15:03:22;26.40;99.90
17565;DHT22;62994;52.126;5.596;2023-07-13T15:05:56;26.50;99.90
17565;DHT22;62994;52.126;5.596;2023-07-13T15:08:37;26.80;99.90
17565;DHT22;62994;52.126;5.596;2023-07-13T15:11:27;27.00;99.90
17565;DHT22;62994;52.126;5.596;2023-07-13T15:14:36;27.10;99.90
17565;DHT22;62994;52.126;5.596;2023-07-13T15:17:28;27.30;99.90
17565;DHT22;62994;52.126;5.596;2023-07-13T15:20:45;27.50;99.90
17565;DHT22;62994;52.126;5.596;2023-07-13T15:23:21;27.60;99.90
17565;DHT22;62994;52.126;5.596;2023-07-13T15:26:11;27.80;99.90
17565;DHT22;62994;52.126;5.596;2023-07-13T15:29:00;27.90;99.90
17565;DHT22;62994;52.126;5.596;2023-07-13T15:31:36;28.00;99.90
17565;DHT22;62994;52.126;5.596;2023-07-13T15:34:43;28.10;99.90
17565;DHT22;62994;52.126;5.596;2023-07-13T15:37:19;28.10;99.90
17565;DHT22;62994;52.126;5.596;2023-07-13T15:40:50;28.10;99.90
17565;DHT22;62994;52.126;5.596;2023-07-13T15:43:01;28.10;99.90
17565;DHT22;62994;52.126;5.596;2023-07-13T15:45:42;27.90;99.90
17565;DHT22;62994;52.126;5.596;2023-07-13T15:58:26;27.70;99.90
17565;DHT22;62994;52.126;5.596;2023-07-13T16:18:14;28.30;99.90
17565;DHT22;62994;52.126;5.596;2023-07-13T16:38:02;27.60;99.90
17565;DHT22;62994;52.126;5.596;2023-07-13T16:40:38;27.50;99.90
17565;DHT22;62994;52.126;5.596;2023-07-13T16:43:12;27.30;99.90
17565;DHT22;62994;52.126;5.596;2023-07-13T16:45:55;27.20;99.90
17565;DHT22;62994;52.126;5.596;2023-07-13T16:48:33;27.10;99.90
17565;DHT22;62994;52.126;5.596;2023-07-13T16:51:01;27.00;99.90
17565;DHT22;62994;52.126;5.596;2023-07-13T16:53:38;26.90;99.90
17565;DHT22;62994;52.126;5.596;2023-07-13T16:56:14;26.80;99.90
17565;DHT22;62994;52.126;5.596;2023-07-13T16:58:49;26.70;99.90
17565;DHT22;62994;52.126;5.596;2023-07-13T17:01:36;26.60;99.90
17565;DHT22;62994;52.126;5.596;2023-07-13T17:04:08;26.60;99.90
17565;DHT22;62994;52.126;5.596;2023-07-13T17:06:59;26.40;99.90
17565;DHT22;62994;52.126;5.596;2023-07-13T17:09:32;26.30;99.90
17565;DHT22;62994;52.126;5.596;2023-07-13T17:12:08;26.20;99.90
17565;DHT22;62994;52.126;5.596;2023-07-13T17:14:46;26.20;99.90
17565;DHT22;62994;52.126;5.596;2023-07-13T17:17:21;26.00;99.90
17565;DHT22;62994;52.126;5.596;2023-07-13T17:19:58;26.00;99.90
17565;DHT22;62994;52.126;5.596;2023-07-13T17:22:33;25.90;99.90
17565;DHT22;62994;52.126;5.596;2023-07-13T17:25:04;25.90;99.90
17565;DHT22;62994;52.126;5.596;2023-07-13T17:27:38;25.80;99.90
17565;DHT22;62994;52.126;5.596;2023-07-13T17:30:14;25.70;99.90
17565;DHT22;62994;52.126;5.596;2023-07-13T17:32:47;25.60;99.90
17565;DHT22;62994;52.126;5.596;2023-07-13T17:35:22;25.60;99.90
17565;DHT22;62994;52.126;5.596;2023-07-13T17:37:53;25.60;99.90
17565;DHT22;62994;52.126;5.596;2023-07-13T17:40:25;25.50;99.90
17565;DHT22;62994;52.126;5.596;2023-07-13T17:43:00;25.50;99.90
17565;DHT22;62994;52.126;5.596;2023-07-13T17:45:34;25.60;99.90
17565;DHT22;62994;52.126;5.596;2023-07-13T17:48:07;25.60;99.90